createdAt,value
2022-08-10T00:00:00.211Z,46.20
2022-08-10T00:02:45.763Z,46.60
2022-08-10T00:05:43.358Z,46.70
2022-08-10T00:08:36.755Z,46.90
2022-08-10T00:11:22.209Z,46.50
2022-08-10T00:14:07.593Z,46.80
2022-08-10T00:16:52.972Z,47.00
2022-08-10T00:20:02.262Z,47.20
2022-08-10T00:22:52.865Z,47.10
2022-08-10T00:25:43.226Z,47.40
2022-08-10T00:28:28.729Z,47.60
2022-08-10T00:31:14.007Z,47.40
2022-08-10T00:33:59.295Z,47.60
2022-08-10T00:36:44.692Z,47.70
2022-08-10T00:39:35.979Z,48.00
2022-08-10T00:42:21.705Z,48.10
2022-08-10T00:45:07.419Z,48.30
2022-08-10T00:47:52.484Z,48.30
2022-08-10T00:50:37.882Z,48.50
2022-08-10T00:53:23.080Z,48.80
2022-08-10T00:57:14.175Z,49.00
2022-08-10T00:59:17.317Z,48.90
2022-08-10T01:02:08.470Z,49.20
2022-08-10T01:05:02.972Z,48.60
2022-08-10T01:07:49.263Z,49.10
2022-08-10T01:10:58.090Z,49.10
2022-08-10T01:14:00.074Z,49.00
2022-08-10T01:16:53.655Z,49.00
2022-08-10T01:19:58.891Z,49.40
2022-08-10T01:23:06.471Z,49.80
2022-08-10T01:26:31.555Z,49.90
2022-08-10T01:29:55.440Z,49.80
2022-08-10T01:32:56.961Z,50.00
2022-08-10T01:36:00.475Z,50.00
2022-08-10T01:38:49.882Z,50.20
2022-08-10T01:41:46.892Z,50.00
2022-08-10T01:44:46.037Z,49.90
2022-08-10T01:47:53.664Z,50.20
2022-08-10T01:50:59.383Z,50.20
2022-08-10T01:54:01.399Z,50.30
2022-08-10T01:56:49.781Z,50.20
2022-08-10T01:59:38.914Z,50.50
2022-08-10T02:02:26.951Z,50.10
2022-08-10T02:05:15.869Z,50.80
2022-08-10T02:08:03.784Z,50.20
2022-08-10T02:10:50.686Z,51.60
2022-08-10T02:13:37.250Z,50.50
2022-08-10T02:16:25.307Z,50.70
2022-08-10T02:19:14.487Z,50.70
2022-08-10T02:22:35.145Z,50.90
2022-08-10T02:25:41.882Z,50.80
2022-08-10T02:28:27.405Z,51.40
2022-08-10T02:31:18.515Z,51.10
2022-08-10T02:34:13.280Z,51.50
2022-08-10T02:37:03.202Z,51.20
2022-08-10T02:39:56.857Z,51.10
2022-08-10T02:45:19.470Z,51.60
2022-08-10T02:46:22.847Z,51.40
2022-08-10T02:49:20.266Z,51.70
2022-08-10T02:52:14.189Z,51.70
2022-08-10T02:55:06.133Z,52.30
2022-08-10T02:58:17.367Z,51.50
2022-08-10T03:01:10.527Z,51.80
2022-08-10T03:04:06.393Z,52.60
2022-08-10T03:07:03.349Z,52.40
2022-08-10T03:09:51.093Z,52.70
2022-08-10T03:12:38.843Z,52.30
2022-08-10T03:15:27.200Z,52.80
2022-08-10T03:18:13.307Z,52.60
2022-08-10T03:21:00.146Z,52.70
2022-08-10T03:23:46.622Z,53.00
2022-08-10T03:26:32.760Z,52.70
2022-08-10T03:29:20.258Z,53.30
2022-08-10T03:32:06.919Z,53.20
2022-08-10T03:34:53.741Z,53.30
2022-08-10T03:37:39.835Z,53.50
2022-08-10T03:40:44.761Z,53.20
2022-08-10T03:43:33.929Z,53.30
2022-08-10T03:46:21.736Z,53.20
2022-08-10T03:49:07.614Z,53.30
2022-08-10T03:51:54.102Z,53.10
2022-08-10T03:54:40.055Z,53.70
2022-08-10T03:57:26.510Z,53.30
2022-08-10T04:00:12.677Z,53.70
2022-08-10T04:02:58.729Z,53.90
2022-08-10T04:05:44.748Z,53.80
2022-08-10T04:08:29.975Z,54.70
2022-08-10T04:11:15.291Z,54.30
2022-08-10T04:14:00.721Z,54.00
2022-08-10T04:16:46.128Z,54.90
2022-08-10T04:19:47.460Z,55.10
2022-08-10T04:22:33.793Z,55.00
2022-08-10T04:25:20.956Z,55.20
2022-08-10T04:28:08.198Z,54.70
2022-08-10T04:30:55.482Z,55.70
2022-08-10T04:33:45.460Z,55.80
2022-08-10T04:36:31.439Z,56.00
2022-08-10T04:39:17.122Z,55.30
2022-08-10T04:42:03.210Z,55.20
2022-08-10T04:44:49.379Z,55.40
2022-08-10T04:48:00.322Z,55.60
2022-08-10T04:50:40.362Z,55.80
2022-08-10T04:53:25.819Z,56.20
2022-08-10T04:56:11.123Z,56.00
2022-08-10T04:58:56.713Z,55.90
2022-08-10T05:02:29.254Z,56.40
2022-08-10T05:04:48.111Z,56.80
2022-08-10T05:07:51.463Z,56.90
2022-08-10T05:10:38.705Z,58.00
2022-08-10T05:13:24.152Z,57.30
2022-08-10T05:16:09.612Z,57.50
2022-08-10T05:19:15.071Z,57.50
2022-08-10T05:22:04.929Z,57.90
2022-08-10T05:24:50.568Z,57.30
2022-08-10T05:27:36.510Z,57.00
2022-08-10T05:30:23.138Z,57.20
2022-08-10T05:33:09.089Z,57.10
2022-08-10T05:35:57.307Z,57.00
2022-08-10T05:38:44.057Z,56.70
2022-08-10T05:41:30.138Z,56.50
2022-08-10T05:44:15.370Z,57.20
2022-08-10T05:47:00.857Z,56.90
2022-08-10T05:49:48.451Z,56.90
2022-08-10T05:52:33.524Z,56.60
2022-08-10T05:55:19.396Z,57.20
2022-08-10T05:58:04.814Z,57.10
2022-08-10T06:00:55.745Z,57.00
2022-08-10T06:03:50.715Z,56.70
2022-08-10T06:06:37.324Z,56.90
2022-08-10T06:09:25.153Z,56.70
2022-08-10T06:12:25.185Z,56.20
2022-08-10T06:15:21.862Z,56.20
2022-08-10T06:18:23.519Z,56.30
2022-08-10T06:21:12.194Z,54.90
2022-08-10T06:24:01.362Z,54.90
2022-08-10T06:26:46.660Z,55.10
2022-08-10T06:29:34.879Z,54.80
2022-08-10T06:32:25.487Z,54.80
2022-08-10T06:35:11.800Z,55.00
2022-08-10T06:37:59.754Z,55.10
2022-08-10T06:40:48.236Z,55.30
2022-08-10T06:43:35.183Z,55.70
2022-08-10T06:46:23.261Z,55.50
2022-08-10T06:49:10.524Z,56.20
2022-08-10T06:51:57.602Z,56.20
2022-08-10T06:54:44.519Z,56.80
2022-08-10T06:57:34.170Z,56.30
2022-08-10T07:00:20.424Z,55.90
2022-08-10T07:03:10.830Z,56.20
2022-08-10T07:05:57.524Z,55.90
2022-08-10T07:08:43.824Z,56.80
2022-08-10T07:11:31.257Z,56.30
2022-08-10T07:14:19.754Z,56.30
2022-08-10T07:17:07.176Z,55.90
2022-08-10T07:19:56.207Z,56.20
2022-08-10T07:23:55.334Z,56.20
2022-08-10T07:25:49.392Z,56.40
2022-08-10T07:28:35.413Z,56.00
2022-08-10T07:31:54.959Z,55.70
2022-08-10T07:34:30.183Z,55.40
2022-08-10T07:37:16.902Z,55.30
2022-08-10T07:40:04.991Z,55.60
2022-08-10T07:42:55.948Z,55.90
2022-08-10T07:45:41.654Z,55.20
2022-08-10T07:48:32.942Z,55.40
2022-08-10T07:51:19.935Z,54.50
2022-08-10T07:54:08.585Z,54.70
2022-08-10T07:56:59.626Z,52.50
2022-08-10T07:59:51.078Z,52.10
2022-08-10T08:02:46.152Z,51.40
2022-08-10T08:05:58.463Z,51.50
2022-08-10T08:08:40.472Z,50.40
2022-08-10T08:11:27.623Z,49.70
2022-08-10T08:14:15.291Z,48.90
2022-08-10T08:17:00.764Z,49.10
2022-08-10T08:19:55.169Z,48.40
2022-08-10T08:24:09.317Z,47.90
2022-08-10T08:25:48.580Z,48.10
2022-08-10T08:28:35.799Z,47.70
2022-08-10T08:31:23.129Z,47.40
2022-08-10T08:34:11.854Z,46.70
2022-08-10T08:36:59.853Z,47.10
2022-08-10T08:39:47.396Z,47.00
2022-08-10T08:43:14.636Z,45.90
2022-08-10T08:46:09.574Z,45.70
2022-08-10T08:50:08.982Z,44.90
2022-08-10T08:52:59.216Z,45.00
2022-08-10T08:56:06.346Z,45.30
2022-08-10T08:59:25.264Z,44.00
2022-08-10T09:02:54.342Z,43.80
2022-08-10T09:06:21.835Z,43.90
2022-08-10T09:09:32.371Z,44.00
2022-08-10T09:12:33.835Z,43.90
2022-08-10T09:15:45.572Z,44.00
2022-08-10T09:19:07.047Z,43.70
2022-08-10T09:22:17.599Z,43.80
2022-08-10T09:25:22.453Z,43.50
2022-08-10T09:28:19.603Z,43.80
2022-08-10T09:31:22.578Z,43.20
2022-08-10T09:36:20.168Z,42.60
2022-08-10T09:37:42.468Z,42.80
2022-08-10T09:41:13.556Z,43.00
2022-08-10T09:44:34.071Z,42.90
2022-08-10T09:48:01.666Z,42.10
2022-08-10T09:51:45.825Z,41.80
2022-08-10T09:55:11.274Z,40.00
2022-08-10T09:58:26.282Z,39.10
2022-08-10T10:02:02.522Z,40.60
2022-08-10T10:04:56.599Z,41.10
2022-08-10T10:07:53.563Z,39.60
2022-08-10T10:10:56.629Z,39.30
2022-08-10T10:14:12.190Z,38.60
2022-08-10T10:17:20.875Z,37.80
2022-08-10T10:20:25.835Z,37.20
2022-08-10T10:23:29.850Z,37.90
2022-08-10T10:26:52.279Z,37.80
2022-08-10T10:30:04.630Z,38.60
2022-08-10T10:32:59.477Z,37.90
2022-08-10T10:35:52.268Z,38.40
2022-08-10T10:38:39.783Z,38.40
2022-08-10T10:41:55.866Z,38.50
2022-08-10T10:45:15.334Z,37.00
2022-08-10T10:48:39.519Z,37.20
2022-08-10T10:51:43.242Z,37.00
2022-08-10T10:54:37.092Z,36.60
2022-08-10T10:58:00.546Z,35.30
2022-08-10T11:01:07.598Z,35.60
2022-08-10T11:04:14.381Z,35.30
2022-08-10T11:07:38.317Z,35.90
2022-08-10T11:10:34.189Z,35.30
2022-08-10T11:14:26.970Z,34.00
2022-08-10T11:16:43.516Z,34.70
2022-08-10T11:20:01.575Z,34.50
2022-08-10T11:22:50.768Z,35.00
2022-08-10T11:25:44.687Z,34.80
2022-08-10T11:28:43.995Z,35.60
2022-08-10T11:31:34.114Z,35.60
2022-08-10T11:34:47.361Z,36.00
2022-08-10T11:38:32.071Z,35.50
2022-08-10T11:42:09.071Z,35.00
2022-08-10T11:44:36.816Z,34.90
2022-08-10T11:47:37.848Z,35.10
2022-08-10T11:50:24.833Z,34.30
2022-08-10T11:53:23.181Z,33.20
2022-08-10T11:56:12.585Z,33.80
2022-08-10T11:59:17.895Z,33.60
2022-08-10T12:02:05.816Z,34.60
2022-08-10T12:04:55.905Z,33.90
2022-08-10T12:10:06.565Z,34.40
2022-08-10T12:11:01.508Z,34.70
2022-08-10T12:14:19.676Z,33.70
2022-08-10T12:17:05.502Z,33.00
2022-08-10T12:20:10.494Z,33.00
2022-08-10T12:23:19.824Z,33.30
2022-08-10T12:26:20.655Z,33.70
2022-08-10T12:29:16.897Z,33.00
2022-08-10T12:32:30.195Z,34.00
2022-08-10T12:35:34.252Z,33.90
2022-08-10T12:38:41.692Z,33.60
2022-08-10T12:41:44.073Z,33.60
2022-08-10T12:44:42.907Z,33.80
2022-08-10T12:47:49.595Z,34.30
2022-08-10T12:50:43.707Z,34.60
2022-08-10T12:53:55.296Z,35.30
2022-08-10T12:57:05.006Z,35.30
2022-08-10T13:00:00.187Z,35.10
2022-08-10T13:02:48.749Z,34.90
2022-08-10T13:06:01.888Z,34.40
2022-08-10T13:09:01.314Z,35.10
2022-08-10T13:12:35.846Z,34.70
2022-08-10T13:15:48.434Z,34.80
2022-08-10T13:18:39.096Z,34.30
2022-08-10T13:21:31.057Z,34.90
2022-08-10T13:24:23.597Z,35.50
2022-08-10T13:27:26.975Z,35.00
2022-08-10T13:30:19.672Z,34.70
2022-08-10T13:34:41.783Z,33.90
2022-08-10T13:36:39.660Z,33.90
2022-08-10T13:39:25.859Z,33.70
2022-08-10T13:42:14.005Z,33.70
2022-08-10T13:45:10.180Z,34.40
2022-08-10T13:48:20.399Z,35.00
2022-08-10T13:51:07.147Z,34.90
2022-08-10T13:53:56.266Z,34.70
2022-08-10T13:56:44.849Z,35.30
2022-08-10T14:00:34.870Z,35.20
2022-08-10T14:03:11.312Z,34.80
2022-08-10T14:05:58.692Z,34.80
2022-08-10T14:08:51.398Z,34.60
2022-08-10T14:11:39.617Z,34.70
2022-08-10T14:14:27.682Z,34.00
2022-08-10T14:17:13.318Z,33.90
2022-08-10T14:20:12.461Z,34.10
2022-08-10T14:23:08.055Z,33.10
2022-08-10T14:26:06.607Z,33.20
2022-08-10T14:29:10.507Z,33.20
2022-08-10T14:32:08.715Z,33.00
2022-08-10T14:36:15.134Z,33.20
2022-08-10T14:38:09.476Z,33.00
2022-08-10T14:40:58.806Z,34.00
2022-08-10T14:43:51.218Z,34.00
2022-08-10T14:46:51.772Z,33.30
2022-08-10T14:49:56.988Z,34.10
2022-08-10T14:52:45.337Z,34.20
2022-08-10T14:55:31.452Z,34.10
2022-08-10T14:59:05.325Z,34.10
2022-08-10T15:02:00.241Z,34.60
2022-08-10T15:05:09.041Z,34.50
2022-08-10T15:07:59.407Z,35.00
2022-08-10T15:10:51.139Z,34.80
2022-08-10T15:13:37.174Z,34.60
2022-08-10T15:16:23.543Z,34.70
2022-08-10T15:20:00.866Z,34.50
2022-08-10T15:22:36.263Z,35.00
2022-08-10T15:25:26.055Z,35.10
2022-08-10T15:28:16.954Z,35.20
2022-08-10T15:31:03.627Z,35.20
2022-08-10T15:34:09.964Z,34.90
2022-08-10T15:37:39.302Z,35.10
2022-08-10T15:40:30.768Z,34.80
2022-08-10T15:43:24.913Z,34.40
2022-08-10T15:46:29.625Z,35.00
2022-08-10T15:49:31.491Z,34.20
2022-08-10T15:52:39.858Z,33.80
2022-08-10T15:55:44.361Z,33.70
2022-08-10T15:58:40.458Z,33.40
2022-08-10T16:02:14.856Z,33.60
2022-08-10T16:05:11.156Z,33.50
2022-08-10T16:08:00.023Z,33.80
2022-08-10T16:10:53.533Z,33.70
2022-08-10T16:13:50.334Z,34.10
2022-08-10T16:16:50.403Z,34.10
2022-08-10T16:19:38.278Z,34.20
2022-08-10T16:22:33.939Z,34.70
2022-08-10T16:25:23.010Z,34.50
2022-08-10T16:28:11.797Z,35.00
2022-08-10T16:31:17.575Z,35.00
2022-08-10T16:34:07.434Z,35.00
2022-08-10T16:36:58.833Z,35.40
2022-08-10T16:39:58.263Z,35.60
2022-08-10T16:42:47.601Z,36.00
2022-08-10T16:45:48.108Z,35.70
2022-08-10T16:48:49.465Z,36.60
2022-08-10T16:51:37.886Z,36.50
2022-08-10T16:54:27.400Z,36.90
2022-08-10T16:57:14.618Z,37.30
2022-08-10T16:59:59.803Z,36.90
2022-08-10T17:02:48.887Z,36.90
2022-08-10T17:06:01.369Z,37.00
2022-08-10T17:08:48.000Z,37.40
2022-08-10T17:11:37.456Z,37.60
2022-08-10T17:14:28.972Z,37.70
2022-08-10T17:17:23.147Z,37.10
2022-08-10T17:20:31.321Z,36.80
2022-08-10T17:23:18.426Z,37.10
2022-08-10T17:26:12.384Z,36.50
2022-08-10T17:29:06.475Z,36.40
2022-08-10T17:31:58.087Z,36.50
2022-08-10T17:34:49.800Z,36.50
2022-08-10T17:37:42.860Z,36.40
2022-08-10T17:40:31.274Z,36.40
2022-08-10T17:43:46.130Z,37.00
2022-08-10T17:46:32.225Z,36.20
2022-08-10T17:49:19.357Z,36.20
2022-08-10T17:52:10.869Z,36.20
2022-08-10T17:55:16.702Z,36.50
2022-08-10T17:58:04.476Z,37.10
2022-08-10T18:00:53.661Z,37.40
2022-08-10T18:03:44.012Z,37.00
2022-08-10T18:06:31.148Z,37.60
2022-08-10T18:09:27.950Z,37.90
2022-08-10T18:12:18.683Z,37.60
2022-08-10T18:15:12.152Z,37.90
2022-08-10T18:18:01.412Z,38.40
2022-08-10T18:20:46.877Z,37.90
2022-08-10T18:23:35.121Z,38.40
2022-08-10T18:26:22.906Z,38.10
2022-08-10T18:29:20.562Z,38.50
2022-08-10T18:32:08.400Z,38.70
2022-08-10T18:34:58.964Z,39.00
2022-08-10T18:37:48.806Z,38.50
2022-08-10T18:40:37.385Z,38.40
2022-08-10T18:44:09.977Z,38.60
2022-08-10T18:46:43.902Z,38.60
2022-08-10T18:49:33.790Z,38.70
2022-08-10T18:52:22.351Z,39.20
2022-08-10T18:55:26.888Z,38.80
2022-08-10T18:58:31.637Z,39.10
2022-08-10T19:01:32.323Z,38.90
2022-08-10T19:04:34.977Z,38.90
2022-08-10T19:07:28.975Z,39.10
2022-08-10T19:10:34.822Z,39.10
2022-08-10T19:13:31.039Z,39.10
2022-08-10T19:17:01.497Z,39.40
2022-08-10T19:20:10.848Z,39.70
2022-08-10T19:23:34.649Z,39.90
2022-08-10T19:26:43.749Z,39.90
2022-08-10T19:30:11.166Z,40.00
2022-08-10T19:33:21.876Z,40.30
2022-08-10T19:36:52.266Z,40.30
2022-08-10T19:40:00.648Z,40.40
2022-08-10T19:43:59.383Z,40.50
2022-08-10T19:46:49.244Z,40.60
2022-08-10T19:49:55.208Z,40.80
2022-08-10T19:52:57.328Z,41.10
2022-08-10T19:55:53.609Z,41.10
2022-08-10T19:59:07.841Z,41.40
2022-08-10T20:01:56.112Z,41.40
2022-08-10T20:04:52.718Z,41.60
2022-08-10T20:07:54.326Z,41.60
2022-08-10T20:10:54.887Z,41.80
2022-08-10T20:13:54.916Z,41.60
2022-08-10T20:16:43.684Z,42.70
2022-08-10T20:19:53.238Z,42.00
2022-08-10T20:22:51.304Z,42.90
2022-08-10T20:25:38.474Z,42.30
2022-08-10T20:28:42.747Z,43.10
2022-08-10T20:31:40.404Z,42.40
2022-08-10T20:34:30.164Z,42.50
2022-08-10T20:37:45.111Z,42.90
2022-08-10T20:41:18.104Z,42.70
2022-08-10T20:44:31.728Z,43.10
2022-08-10T20:47:20.005Z,42.90
2022-08-10T20:50:41.002Z,43.30
2022-08-10T20:53:33.287Z,43.30
2022-08-10T20:56:48.666Z,43.50
2022-08-10T21:00:11.021Z,43.50
2022-08-10T21:03:33.199Z,43.60
2022-08-10T21:06:44.972Z,43.80
2022-08-10T21:09:49.958Z,43.70
2022-08-10T21:12:38.068Z,43.90
2022-08-10T21:15:47.973Z,44.00
2022-08-10T21:18:43.931Z,44.10
2022-08-10T21:21:57.052Z,44.40
2022-08-10T21:25:01.707Z,44.30
2022-08-10T21:28:10.704Z,44.60
2022-08-10T21:31:16.131Z,44.30
2022-08-10T21:34:16.565Z,44.50
2022-08-10T21:37:39.755Z,44.70
2022-08-10T21:41:18.806Z,44.80
2022-08-10T21:44:45.277Z,44.90
2022-08-10T21:48:30.195Z,45.10
2022-08-10T21:52:02.030Z,45.70
2022-08-10T21:55:13.091Z,45.90
2022-08-10T21:58:36.579Z,46.20
2022-08-10T22:01:51.540Z,46.10
2022-08-10T22:04:57.020Z,46.30
2022-08-10T22:08:04.821Z,46.20
2022-08-10T22:11:16.865Z,46.10
2022-08-10T22:14:27.248Z,46.20
2022-08-10T22:18:01.285Z,46.30
2022-08-10T22:21:08.016Z,46.30
2022-08-10T22:24:32.680Z,46.60
2022-08-10T22:27:57.162Z,46.50
2022-08-10T22:31:30.682Z,46.80
2022-08-10T22:35:03.913Z,47.40
2022-08-10T22:38:36.114Z,47.10
2022-08-10T22:41:48.943Z,47.10
2022-08-10T22:44:58.945Z,47.60
2022-08-10T22:48:03.283Z,48.20
2022-08-10T22:50:53.210Z,48.90
2022-08-10T22:54:06.491Z,48.70
2022-08-10T22:57:12.290Z,49.20
2022-08-10T22:59:57.980Z,49.10
2022-08-10T23:02:55.140Z,49.30
2022-08-10T23:06:06.050Z,49.40
2022-08-10T23:08:58.782Z,49.90
2022-08-10T23:11:45.002Z,49.00
2022-08-10T23:14:37.475Z,49.50
2022-08-10T23:18:01.061Z,49.80
2022-08-10T23:20:50.680Z,49.90
2022-08-10T23:23:40.040Z,50.40
2022-08-10T23:26:32.402Z,50.40
2022-08-10T23:29:17.980Z,50.30
2022-08-10T23:32:06.968Z,50.70
2022-08-10T23:36:30.367Z,51.10
2022-08-10T23:38:00.894Z,51.30
2022-08-10T23:40:49.013Z,51.00
2022-08-10T23:44:02.834Z,50.80
2022-08-10T23:46:46.459Z,51.40
2022-08-10T23:49:37.208Z,52.00
2022-08-10T23:52:34.277Z,51.80
2022-08-10T23:55:23.511Z,51.60
2022-08-10T23:58:33.015Z,51.90
